Creek Data

    Home     View Charts     View Raw Data     Messages

ID Distance Battery Voltage Battery Current Internal Temp Internal Humidity External Temp Solar Input rssi snr Time Stamp Record
33289 14.6 3.88 0 59 36 65 5.1 -71 8 02/24/2025 09:30 AM 14975
33288 14.6 3.79 0 56 37 62 5.1 -69 8 02/24/2025 09:15 AM 14974
33287 14.5 3.79 0 54 37 57 5.1 -70 7 02/24/2025 09:00 AM 14973
33286 14.5 3.79 -5 53 37 54 5.1 -71 7 02/24/2025 08:45 AM 14972
33285 14.5 4.04 88 52 37 53 4.5 -71 7 02/24/2025 08:15 AM 14970
33284 14.5 3.92 25 52 37 52 4.5 -70 8 02/24/2025 08:00 AM 14969
33283 14.5 3.89 14 51 38 52 4.5 -70 8 02/24/2025 07:45 AM 14968
33282 14.5 3.84 -9 51 38 51 4.5 -71 8 02/24/2025 07:30 AM 14967
33281 14.4 3.86 7 51 38 51 4.5 -71 8 02/24/2025 07:15 AM 14966
33280 14.4 3.79 -7 51 38 51 4.5 -71 7 02/24/2025 07:00 AM 14965
33279 14.4 3.79 -8 51 37 51 2.2 -71 8 02/24/2025 06:45 AM 14964
33278 14.4 3.84 -5 51 37 51 0.3 -70 8 02/24/2025 06:30 AM 14963
33277 14.4 3.79 -5 50 37 51 0 -71 8 02/24/2025 06:15 AM 14962
33276 14.4 3.84 -5 49 37 51 0 -71 8 02/24/2025 06:00 AM 14961
33275 14.4 3.79 -5 48 38 50 0 -70 8 02/24/2025 05:45 AM 14960
33274 14.4 3.79 -5 48 38 49 0 -71 8 02/24/2025 05:30 AM 14959
33273 14.4 3.79 -5 47 38 48 0 -71 7 02/24/2025 05:15 AM 14958
33272 14.4 3.85 -5 47 38 48 0 -71 8 02/24/2025 05:00 AM 14957
33271 14.4 3.79 -5 47 38 47 0 -71 8 02/24/2025 04:45 AM 14956
33270 14.4 3.85 -5 47 38 48 0 -71 8 02/24/2025 04:30 AM 14955
33269 14.4 3.79 -5 47 38 48 0 -70 8 02/24/2025 04:15 AM 14954
33268 14.4 3.85 -5 47 38 48 0.1 -70 8 02/24/2025 04:00 AM 14953
33267 14.4 3.80 -5 47 38 48 0 -70 8 02/24/2025 03:45 AM 14952
33266 14.4 3.85 -5 47 38 49 0 -71 8 02/24/2025 03:30 AM 14951
33265 14.4 3.80 -5 47 38 49 0 -71 8 02/24/2025 03:15 AM 14950